Time;durP1;ratioP1;P1;durP2;ratioP2;P2;SDS_P1;SDS_P2;PMS_P1;PMS_P2;Temp;Humidity;BMP_temperature;BMP_pressure;BME280_temperature;BME280_humidity;BME280_pressure;Samples;Min_cycle;Max_cycle;Signal;HPM_P1;HPM_P2
2022/05/22 00:01:03;;;;;;;5.12;3.27;;;;;;;12.34;73.61;100596.67;1734398;82;21035;-76
2022/05/22 00:03:30;;;;;;;6.60;3.25;;;;;;;12.28;73.76;100591.22;1749492;82;21279;-76
2022/05/22 00:05:57;;;;;;;5.65;3.17;;;;;;;12.27;73.78;100588.17;1749766;82;21160;-77
2022/05/22 00:08:24;;;;;;;5.53;3.40;;;;;;;12.24;73.72;100589.14;1734139;82;21022;-76
2022/05/22 00:10:52;;;;;;;4.75;3.10;;;;;;;12.18;73.84;100586.77;1749845;82;21046;-76
2022/05/22 00:13:20;;;;;;;5.47;3.15;;;;;;;12.17;73.79;100587.70;1749718;82;20981;-75
2022/05/22 00:18:33;;;;;;;3.42;2.87;;;;;;;12.05;74.02;100580.30;1750499;81;21140;-75
2022/05/22 00:21:00;;;;;;;8.93;3.85;;;;;;;12.07;74.49;100582.42;1751332;81;20907;-75
2022/05/22 00:23:28;;;;;;;4.75;3.50;;;;;;;12.09;74.64;100580.59;1724510;83;21106;-76
2022/05/22 00:25:58;;;;;;;7.72;3.67;;;;;;;12.09;74.49;100573.17;1724880;83;21522;-76
2022/05/22 00:28:26;;;;;;;5.67;3.17;;;;;;;12.04;74.28;100569.41;1724675;83;21612;-75
2022/05/22 00:30:53;;;;;;;4.65;2.50;;;;;;;12.00;74.27;100577.88;1724780;83;21089;-75
2022/05/22 00:33:20;;;;;;;5.35;2.87;;;;;;;11.95;74.26;100574.58;1724381;83;21094;-77
2022/05/22 00:35:48;;;;;;;6.57;3.50;;;;;;;11.92;74.41;100570.77;1724870;83;21086;-75
2022/05/22 00:38:15;;;;;;;6.93;3.07;;;;;;;11.88;74.51;100569.16;1697743;83;21083;-79
2022/05/22 00:40:43;;;;;;;6.78;3.15;;;;;;;11.87;74.51;100572.71;1751339;82;21078;-77
2022/05/22 00:43:35;;;;;;;5.53;2.98;;;;;;;11.83;74.48;100573.70;1751072;82;21045;-76
2022/05/22 00:46:05;;;;;;;6.42;3.20;;;;;;;11.74;74.42;100572.30;1724741;83;21007;-78
2022/05/22 00:48:33;;;;;;;4.60;3.20;;;;;;;11.68;74.65;100577.79;1724765;83;21015;-76
2022/05/22 00:51:09;;;;;;;4.83;3.00;;;;;;;11.67;74.73;100574.78;1751352;82;21042;-76
2022/05/22 00:53:43;;;;;;;6.87;3.15;;;;;;;11.61;74.85;100575.87;1751371;81;21037;-77
2022/05/22 00:56:15;;;;;;;4.07;2.87;;;;;;;11.63;75.06;100573.17;1724572;83;21855;-76
2022/05/22 00:58:43;;;;;;;4.40;3.27;;;;;;;11.57;74.92;100575.58;1751399;82;20980;-76
2022/05/22 01:01:10;;;;;;;4.33;3.00;;;;;;;11.53;75.06;100575.31;1751661;81;21002;-77
2022/05/22 01:03:38;;;;;;;7.10;3.22;;;;;;;11.50;74.96;100578.05;1724640;83;21647;-76
2022/05/22 01:06:09;;;;;;;5.65;2.80;;;;;;;11.46;74.90;100575.59;1724923;83;21050;-77
2022/05/22 01:08:39;;;;;;;5.03;2.55;;;;;;;11.42;74.96;100576.60;1751400;82;21154;-76
2022/05/22 01:11:26;;;;;;;5.50;3.00;;;;;;;11.38;75.21;100577.19;1751428;80;20972;-76
2022/05/22 01:14:10;;;;;;;4.00;2.60;;;;;;;11.38;75.44;100580.66;1751071;82;21076;-76
2022/05/22 01:16:38;;;;;;;8.80;3.17;;;;;;;11.39;75.28;100575.83;1751162;81;21060;-76
2022/05/22 01:19:15;;;;;;;6.03;2.70;;;;;;;11.37;75.28;100571.55;1753960;81;21056;-76
2022/05/22 01:21:55;;;;;;;5.03;2.37;;;;;;;11.35;75.56;100566.34;1732322;81;21323;-77
2022/05/22 01:24:23;;;;;;;4.55;2.75;;;;;;;11.37;75.39;100566.30;1731111;81;21584;-76
2022/05/22 01:26:52;;;;;;;4.70;2.60;;;;;;;11.40;75.76;100564.87;1754919;81;20925;-79
2022/05/22 01:29:21;;;;;;;6.23;2.60;;;;;;;11.42;75.51;100569.61;1745590;81;21271;-76
2022/05/22 01:31:48;;;;;;;5.60;2.97;;;;;;;11.42;75.26;100563.48;1755068;80;22004;-76
2022/05/22 01:34:15;;;;;;;3.47;2.07;;;;;;;11.39;75.50;100569.27;1754841;81;21123;-76
2022/05/22 01:36:42;;;;;;;4.77;2.37;;;;;;;11.33;75.22;100562.95;1724929;83;21114;-76
2022/05/22 01:39:10;;;;;;;6.30;2.70;;;;;;;11.28;74.97;100561.38;1732952;82;21047;-76
2022/05/22 01:41:42;;;;;;;4.10;2.37;;;;;;;11.24;75.15;100559.80;1709709;82;20988;-76
2022/05/22 01:44:09;;;;;;;6.07;2.60;;;;;;;11.22;75.50;100559.84;1754850;81;21035;-80
2022/05/22 01:46:36;;;;;;;6.63;2.93;;;;;;;11.18;75.25;100560.88;1731464;81;21160;-75
2022/05/22 01:49:07;;;;;;;5.27;2.03;;;;;;;11.19;75.46;100562.58;1753832;81;21493;-76
2022/05/22 01:51:41;;;;;;;10.93;2.30;;;;;;;11.15;75.32;100558.37;1755228;81;21062;-79
2022/05/22 01:54:09;;;;;;;5.40;1.93;;;;;;;11.15;75.52;100557.91;1754691;81;21702;-76
2022/05/22 01:56:39;;;;;;;4.70;1.98;;;;;;;11.15;75.46;100555.28;1754987;81;21131;-76
2022/05/22 01:59:08;;;;;;;3.93;1.93;;;;;;;11.11;75.10;100552.39;1754658;81;21126;-76
2022/05/22 02:01:37;;;;;;;5.15;1.87;;;;;;;11.05;75.06;100556.98;1754859;81;21509;-76
2022/05/22 02:04:06;;;;;;;7.80;1.98;;;;;;;11.02;75.34;100551.39;1754733;81;21008;-76
2022/05/22 02:06:35;;;;;;;3.55;1.80;;;;;;;10.98;75.05;100551.12;1755333;81;21062;-80
2022/05/22 02:09:08;;;;;;;5.00;2.00;;;;;;;10.91;75.02;100545.69;1754089;81;21039;-77
2022/05/22 02:11:36;;;;;;;4.47;1.70;;;;;;;10.90;75.57;100544.84;1754803;81;22087;-76
2022/05/22 02:14:04;;;;;;;4.33;1.90;;;;;;;10.89;75.35;100545.76;1754717;81;21237;-77
2022/05/22 02:16:31;;;;;;;3.83;1.67;;;;;;;10.89;75.48;100551.43;1755007;81;21027;-76
2022/05/22 02:18:58;;;;;;;3.93;1.67;;;;;;;10.89;75.90;100553.62;1752407;80;21454;-76
2022/05/22 02:21:29;;;;;;;3.37;1.80;;;;;;;10.93;75.60;100563.08;1751185;82;21028;-76
2022/05/22 02:23:56;;;;;;;7.97;2.40;;;;;;;10.93;75.54;100559.14;1751249;82;21096;-76
2022/05/22 02:26:23;;;;;;;3.80;1.63;;;;;;;10.90;75.48;100556.63;1751120;81;21043;-76
2022/05/22 02:28:50;;;;;;;5.37;1.90;;;;;;;10.89;75.72;100554.94;1751267;81;21505;-76
2022/05/22 02:31:17;;;;;;;3.50;1.77;;;;;;;10.93;75.75;100550.42;1751314;82;21047;-76
2022/05/22 02:33:46;;;;;;;3.70;1.93;;;;;;;10.94;75.79;100552.13;1750669;82;20985;-76
2022/05/22 02:36:15;;;;;;;3.27;1.80;;;;;;;10.94;75.61;100546.42;1751269;81;21083;-76
2022/05/22 02:38:44;;;;;;;3.67;1.90;;;;;;;10.94;75.52;100542.48;1751439;81;21095;-76
2022/05/22 02:41:16;;;;;;;4.63;1.53;;;;;;;10.93;75.65;100546.03;1751077;81;21043;-76
2022/05/22 02:43:45;;;;;;;4.70;1.50;;;;;;;10.97;75.89;100548.08;1750363;82;21537;-76
2022/05/22 02:46:16;;;;;;;6.37;1.87;;;;;;;11.00;75.75;100548.00;1751492;81;21106;-76
2022/05/22 02:48:43;;;;;;;5.85;1.50;;;;;;;11.03;75.68;100549.63;1751295;81;21030;-76
2022/05/22 02:51:18;;;;;;;6.37;1.67;;;;;;;11.03;75.49;100545.26;1751452;81;21036;-76
2022/05/22 02:53:46;;;;;;;4.17;1.70;;;;;;;11.04;75.36;100549.58;1751139;82;21075;-76
2022/05/22 02:56:30;;;;;;;3.47;1.37;;;;;;;11.01;75.44;100547.07;1747962;81;21485;-76
2022/05/22 02:58:59;;;;;;;7.20;1.30;;;;;;;11.06;75.76;100549.53;1750115;82;21275;-76
2022/05/22 03:01:27;;;;;;;3.43;1.17;;;;;;;11.11;75.53;100558.06;1751448;81;21140;-76
2022/05/22 03:03:54;;;;;;;3.13;1.20;;;;;;;11.06;75.01;100558.72;1751214;82;21044;-76
2022/05/22 03:06:40;;;;;;;6.63;1.40;;;;;;;11.02;75.20;100557.10;1751145;82;21454;-76
2022/05/22 03:09:15;;;;;;;2.53;0.93;;;;;;;11.03;75.21;100554.44;1751443;81;20997;-76
2022/05/22 03:11:46;;;;;;;4.93;1.37;;;;;;;11.05;75.26;100560.45;1750458;81;21053;-76
2022/05/22 03:14:15;;;;;;;3.17;1.27;;;;;;;11.11;75.20;100558.06;1751212;82;21114;-76
2022/05/22 03:16:42;;;;;;;5.73;1.50;;;;;;;11.09;74.89;100558.14;1751257;81;21605;-76
2022/05/22 03:19:10;;;;;;;4.43;1.40;;;;;;;11.08;74.96;100551.16;1750407;81;21504;-76
2022/05/22 03:21:38;;;;;;;6.42;1.30;;;;;;;11.10;74.89;100547.19;1751199;81;21043;-76
2022/05/22 03:24:06;;;;;;;3.77;1.60;;;;;;;11.10;74.85;100545.87;1751495;81;21039;-76
2022/05/22 03:26:35;;;;;;;4.03;1.07;;;;;;;11.11;74.50;100546.27;1751172;82;21955;-76
2022/05/22 03:29:03;;;;;;;2.07;0.90;;;;;;;11.08;74.65;100548.54;1751368;81;20992;-76
2022/05/22 03:31:30;;;;;;;5.07;1.30;;;;;;;11.09;74.70;100545.48;1723697;82;21059;-77
2022/05/22 03:33:57;;;;;;;6.00;1.33;;;;;;;11.14;74.99;100546.14;1751441;81;21016;-76
2022/05/22 03:36:24;;;;;;;2.07;1.10;;;;;;;11.17;74.51;100543.44;1751058;82;21051;-76
2022/05/22 03:38:53;;;;;;;6.37;1.30;;;;;;;11.10;74.10;100547.19;1751509;81;21109;-76
2022/05/22 03:41:20;;;;;;;3.53;1.63;;;;;;;11.07;74.33;100542.91;1751101;82;21036;-76
2022/05/22 03:43:48;;;;;;;3.30;0.93;;;;;;;11.04;74.00;100548.27;1751105;82;21095;-76
2022/05/22 03:46:28;;;;;;;3.80;0.97;;;;;;;11.01;74.01;100543.14;1750990;81;21039;-76
2022/05/22 03:48:55;;;;;;;5.03;1.13;;;;;;;10.99;73.96;100540.16;1751583;81;21512;-76
2022/05/22 03:51:24;;;;;;;4.80;0.80;;;;;;;10.99;73.96;100542.79;1751094;82;21108;-76
2022/05/22 03:53:54;;;;;;;3.90;1.10;;;;;;;11.01;74.12;100552.78;1751435;81;21055;-76
2022/05/22 03:56:23;;;;;;;4.20;1.15;;;;;;;11.01;73.95;100561.50;1750678;82;20968;-76
2022/05/22 03:58:50;;;;;;;4.77;1.47;;;;;;;11.00;73.93;100558.48;1751460;81;21001;-76
2022/05/22 04:01:18;;;;;;;5.80;2.07;;;;;;;11.01;73.96;100557.56;1751260;82;21047;-76
2022/05/22 04:03:46;;;;;;;5.63;2.07;;;;;;;11.03;73.90;100560.99;1750626;81;21094;-76
2022/05/22 04:06:14;;;;;;;4.77;1.90;;;;;;;11.06;73.86;100554.78;1751232;81;21055;-76
2022/05/22 04:08:42;;;;;;;5.67;1.83;;;;;;;11.06;73.76;100551.70;1751502;81;21522;-76
2022/05/22 04:11:13;;;;;;;4.73;1.90;;;;;;;11.07;73.87;100549.46;1751181;82;21090;-76
2022/05/22 04:13:41;;;;;;;6.53;2.60;;;;;;;11.06;73.64;100547.77;1751567;81;21032;-76
2022/05/22 04:16:09;;;;;;;4.40;2.20;;;;;;;11.06;73.74;100552.16;1751140;81;21105;-76
2022/05/22 04:18:36;;;;;;;5.27;2.33;;;;;;;11.11;73.90;100558.06;1751923;80;21051;-76
2022/05/22 04:21:13;;;;;;;4.00;1.80;;;;;;;11.15;73.76;100557.06;1759914;80;21035;-81
2022/05/22 04:26:20;;;;;;;5.80;1.23;;;;;;;11.13;73.51;100549.69;1730372;80;21020;-77
2022/05/22 04:28:47;;;;;;;4.77;1.80;;;;;;;11.17;73.67;100547.38;1750076;82;22450;-76
2022/05/22 04:31:19;;;;;;;3.10;1.30;;;;;;;11.21;73.73;100550.27;1761682;81;20992;-79
2022/05/22 04:33:48;;;;;;;3.62;1.20;;;;;;;11.27;73.75;100551.34;1762365;81;21008;-76
2022/05/22 04:36:15;;;;;;;3.03;1.17;;;;;;;11.32;73.80;100551.18;1745867;80;21040;-81
2022/05/22 04:38:43;;;;;;;4.67;1.20;;;;;;;11.38;73.66;100560.13;1731260;81;21131;-82
2022/05/22 04:41:10;;;;;;;5.77;1.23;;;;;;;11.42;73.51;100555.17;1763435;81;22308;-81
2022/05/22 04:43:37;;;;;;;4.90;1.17;;;;;;;11.46;73.46;100555.91;1763522;80;21044;-79
2022/05/22 04:46:07;;;;;;;5.22;1.27;;;;;;;11.48;73.64;100551.46;1763475;80;21059;-81
2022/05/22 04:48:36;;;;;;;3.20;0.90;;;;;;;11.56;73.51;100558.59;1763061;80;21349;-77
2022/05/22 04:51:05;;;;;;;;;;;;;;;11.60;73.40;100559.70;1764474;80;21051;-80
2022/05/22 04:53:37;;;;;;;4.30;1.35;;;;;;;11.68;73.67;100559.88;1760586;80;22062;-83
2022/05/22 04:56:11;;;;;;;2.40;1.03;;;;;;;11.75;73.36;100563.95;1761774;80;21042;-76
2022/05/22 04:58:43;;;;;;;3.57;1.17;;;;;;;11.75;73.12;100570.08;1762434;80;21541;-83
2022/05/22 05:01:13;;;;;;;3.15;1.05;;;;;;;11.77;73.10;100579.20;1763368;80;20989;-77
2022/05/22 05:03:47;;;;;;;7.62;1.98;;;;;;;11.78;72.80;100573.05;1720116;80;21028;-77
2022/05/22 05:06:15;;;;;;;3.12;1.00;;;;;;;11.80;73.03;100568.56;1761824;80;21275;-82
2022/05/22 05:08:43;;;;;;;4.35;1.05;;;;;;;11.84;73.00;100566.23;1763428;81;21044;-82
2022/05/22 05:11:12;;;;;;;2.80;1.12;;;;;;;11.88;72.88;100564.37;1759942;80;20996;-78
2022/05/22 05:13:44;;;;;;;2.47;1.10;;;;;;;11.90;72.76;100569.11;1761662;80;21110;-78
2022/05/22 05:16:14;;;;;;;4.03;1.30;;;;;;;11.89;72.52;100568.27;1752185;80;21682;-84
2022/05/22 05:18:42;;;;;;;3.77;1.00;;;;;;;11.88;72.53;100566.53;1758067;80;21991;-79
2022/05/22 05:21:13;;;;;;;3.40;1.20;;;;;;;11.90;72.67;100566.48;1735799;81;21541;-77
2022/05/22 05:23:41;;;;;;;6.00;1.12;;;;;;;11.89;72.45;100568.69;1737721;81;21466;-77
2022/05/22 05:26:10;;;;;;;6.33;1.22;;;;;;;11.89;72.61;100565.63;1731876;81;21050;-77
2022/05/22 05:28:37;;;;;;;5.10;1.25;;;;;;;11.94;72.75;100564.12;1727516;83;21074;-77
2022/05/22 05:31:05;;;;;;;7.30;1.07;;;;;;;12.00;72.73;100570.46;1727332;83;21116;-77
2022/05/22 05:33:34;;;;;;;4.67;1.20;;;;;;;12.02;72.65;100573.39;1727401;83;21050;-82
2022/05/22 05:36:15;;;;;;;6.25;1.00;;;;;;;12.04;72.51;100566.31;1726515;83;21061;-83
2022/05/22 05:39:00;;;;;;;9.63;2.17;;;;;;;12.08;72.73;100570.13;1730423;81;21027;-79
2022/05/22 05:41:36;;;;;;;6.92;1.87;;;;;;;12.10;72.39;100573.56;1739035;81;21522;-77
2022/05/22 05:44:06;;;;;;;6.60;1.50;;;;;;;12.11;72.40;100572.20;1757691;81;21115;-77
2022/05/22 05:46:36;;;;;;;4.53;1.23;;;;;;;12.15;72.39;100572.45;1757360;81;21129;-77
2022/05/22 05:49:07;;;;;;;3.57;1.10;;;;;;;12.21;72.57;100577.45;1757089;81;21055;-78
2022/05/22 05:51:36;;;;;;;6.92;1.10;;;;;;;12.25;72.38;100581.68;1726896;81;21183;-84
2022/05/22 05:54:04;;;;;;;5.53;1.30;;;;;;;12.31;72.28;100583.66;1754854;81;21107;-79
2022/05/22 05:56:50;;;;;;;6.37;1.35;;;;;;;12.32;72.08;100581.42;1757702;81;21455;-77
2022/05/22 05:59:26;;;;;;;4.78;0.95;;;;;;;12.38;72.20;100580.70;1757086;81;21506;-81
2022/05/22 06:02:13;;;;;;;5.70;1.30;;;;;;;12.48;72.17;100585.13;1756637;81;21064;-78
2022/05/22 06:04:41;;;;;;;4.87;1.10;;;;;;;12.55;71.76;100583.93;1757711;81;21059;-77
2022/05/22 06:07:10;;;;;;;3.70;0.90;;;;;;;12.58;71.65;100575.05;1757509;81;21059;-77
2022/05/22 06:09:38;;;;;;;5.58;1.40;;;;;;;12.61;71.78;100573.17;1757935;81;22021;-78
2022/05/22 06:12:07;;;;;;;7.90;1.60;;;;;;;12.68;71.70;100591.70;1739570;81;23188;-80
2022/05/22 06:14:36;;;;;;;4.28;1.32;;;;;;;12.70;71.34;100587.23;1758034;81;21029;-78
2022/05/22 06:17:05;;;;;;;6.37;1.80;;;;;;;12.68;71.03;100592.16;1757602;81;21503;-77
2022/05/22 06:22:28;;;;;;;8.75;1.75;;;;;;;12.71;71.33;100581.05;1756565;81;21313;-83
2022/05/22 06:24:57;;;;;;;5.90;1.22;;;;;;;12.79;71.30;100578.09;1756855;81;20969;-78
2022/05/22 06:27:28;;;;;;;3.62;1.20;;;;;;;12.83;71.24;100569.16;1756874;81;21470;-78
2022/05/22 06:30:15;;;;;;;5.35;1.47;;;;;;;12.87;71.03;100575.13;1756946;81;21045;-79
2022/05/22 06:32:57;;;;;;;5.83;1.35;;;;;;;12.90;71.09;100570.58;1753478;81;20977;-81
2022/05/22 06:35:35;;;;;;;4.67;0.90;;;;;;;13.00;71.38;100572.36;1669275;86;21252;-84
2022/05/22 06:41:32;;;;;;;6.75;1.55;;;;;;;13.10;70.92;100573.64;1641285;87;21050;-90
2022/05/22 06:44:04;;;;;;;7.95;1.50;;;;;;;13.13;70.75;100576.13;1594074;87;21086;-84
2022/05/22 06:46:45;;;;;;;4.17;1.10;;;;;;;13.18;70.83;100570.20;1677946;81;21253;-84
2022/05/22 06:49:25;;;;;;;3.67;1.30;;;;;;;13.25;70.71;100576.06;1749356;81;21295;-83
2022/05/22 06:52:07;;;;;;;6.28;1.30;;;;;;;13.23;70.39;100575.73;1706889;83;21026;-82
2022/05/22 06:54:48;;;;;;;3.42;0.93;;;;;;;13.26;70.37;100585.69;1707082;83;21021;-83
2022/05/22 06:57:38;;;;;;;3.10;1.10;;;;;;;13.27;70.29;100574.22;1705956;83;21058;-83
2022/05/22 07:00:14;;;;;;;4.12;1.17;;;;;;;13.32;70.23;100584.56;1710584;81;20994;-83
2022/05/22 07:02:52;;;;;;;5.08;1.27;;;;;;;13.34;70.06;100585.34;1721445;81;21164;-82
2022/05/22 07:05:21;;;;;;;4.17;1.32;;;;;;;13.40;70.07;100590.33;1751226;81;21071;-82
2022/05/22 07:08:08;;;;;;;5.55;1.10;;;;;;;13.49;70.08;100591.21;1700752;81;21475;-82
2022/05/22 07:13:40;;;;;;;3.60;1.10;;;;;;;13.63;69.65;100600.26;1727252;81;20999;-83
2022/05/22 07:16:22;;;;;;;5.08;1.35;;;;;;;13.64;69.54;100600.20;1754125;81;21950;-82
2022/05/22 07:18:57;;;;;;;3.27;0.90;;;;;;;13.68;69.46;100593.00;1733298;81;21030;-81
2022/05/22 07:21:35;;;;;;;4.45;1.10;;;;;;;13.73;69.43;100591.86;1722145;81;21046;-80
2022/05/22 07:24:05;;;;;;;5.22;1.20;;;;;;;13.77;69.29;100588.17;1733971;80;21047;-81
2022/05/22 07:26:43;;;;;;;6.55;1.32;;;;;;;13.81;69.18;100591.51;1773664;80;21130;-82
2022/05/22 07:29:23;;;;;;;4.90;1.00;;;;;;;13.83;69.06;100583.92;1760178;80;21008;-82
2022/05/22 07:31:56;;;;;;;4.85;1.30;;;;;;;13.86;68.90;100576.34;1759146;80;21045;-82
2022/05/22 07:34:42;;;;;;;9.85;5.22;;;;;;;13.92;68.98;100562.86;1674832;85;21022;-84
2022/05/22 07:37:22;;;;;;;7.87;2.83;;;;;;;13.97;69.03;100556.91;1698652;83;21002;-79
2022/05/22 07:39:51;;;;;;;4.83;1.75;;;;;;;14.12;69.46;100547.86;1731603;82;21125;-80
2022/05/22 07:42:39;;;;;;;3.45;1.25;;;;;;;14.26;69.25;100551.51;1713671;80;21119;-79
2022/05/22 07:45:24;;;;;;;6.35;1.17;;;;;;;14.36;68.54;100546.64;1765334;80;21047;-79
2022/05/22 07:47:57;;;;;;;3.33;1.07;;;;;;;14.43;68.71;100549.34;1796826;79;21516;-85
2022/05/22 07:50:35;;;;;;;4.55;0.98;;;;;;;14.50;68.50;100547.27;1745784;81;21513;-81
2022/05/22 07:53:20;;;;;;;4.00;1.77;;;;;;;14.59;68.32;100560.00;1754642;81;21004;-87
2022/05/22 07:55:55;;;;;;;4.62;1.67;;;;;;;14.57;67.90;100545.18;1689452;82;21135;-81
2022/05/22 07:58:27;;;;;;;7.30;2.30;;;;;;;14.62;67.68;100542.69;1752988;81;20967;-81
2022/05/22 08:01:03;;;;;;;3.37;1.55;;;;;;;14.64;67.41;100553.18;1752597;81;21009;-82
2022/05/22 08:03:40;;;;;;;2.90;0.98;;;;;;;14.68;67.44;100550.28;1738268;81;21015;-81
2022/05/22 08:06:08;;;;;;;6.42;1.02;;;;;;;14.77;67.43;100548.11;1754557;81;21629;-77
2022/05/22 08:08:37;;;;;;;3.00;0.82;;;;;;;14.83;67.25;100555.25;1754839;81;21272;-80
2022/05/22 08:11:21;;;;;;;3.58;0.98;;;;;;;14.86;66.81;100552.45;1754180;81;21070;-83
2022/05/22 08:14:05;;;;;;;5.55;1.40;;;;;;;14.89;66.83;100542.20;1753915;81;21059;-79
2022/05/22 08:16:34;;;;;;;8.03;1.30;;;;;;;14.86;66.42;100544.53;1754239;81;21032;-83
2022/05/22 08:19:06;;;;;;;2.90;1.30;;;;;;;14.80;66.02;100543.54;1754384;81;21000;-83
2022/05/22 08:21:35;;;;;;;4.30;1.47;;;;;;;14.81;65.92;100536.47;1751627;81;21139;-78
2022/05/22 08:24:05;;;;;;;3.75;1.05;;;;;;;14.87;66.24;100534.35;1751450;81;21008;-79
2022/05/22 08:26:34;;;;;;;2.50;1.22;;;;;;;15.04;66.29;100537.41;1750483;82;21043;-79
2022/05/22 08:29:02;;;;;;;2.87;0.88;;;;;;;15.09;65.94;100539.81;1751462;81;21052;-79
2022/05/22 08:31:30;;;;;;;2.50;0.98;;;;;;;15.13;65.65;100534.30;1751068;81;21052;-82
2022/05/22 08:33:57;;;;;;;3.90;1.10;;;;;;;15.15;65.30;100532.41;1751402;81;22021;-78
2022/05/22 08:36:25;;;;;;;4.70;1.10;;;;;;;15.13;64.89;100530.78;1750933;82;21063;-85
2022/05/22 08:38:52;;;;;;;2.87;0.90;;;;;;;15.20;64.97;100529.53;1751363;81;21035;-82
2022/05/22 08:41:45;;;;;;;2.98;0.90;;;;;;;15.18;64.47;100532.23;1751001;82;20996;-85
2022/05/22 08:44:20;;;;;;;3.95;1.10;;;;;;;15.11;64.30;100544.08;1751605;81;21050;-84
2022/05/22 08:47:03;;;;;;;5.15;0.80;;;;;;;15.16;64.38;100530.17;1750671;82;22237;-83
2022/05/22 08:49:41;;;;;;;4.40;1.20;;;;;;;15.31;64.43;100535.08;1751308;81;20908;-82
2022/05/22 08:52:30;;;;;;;3.47;1.02;;;;;;;15.42;64.04;100538.45;1750808;82;21576;-84
2022/05/22 08:55:11;;;;;;;2.95;1.10;;;;;;;15.40;63.59;100538.52;1751190;81;21101;-82
2022/05/22 09:01:00;;;;;;;5.20;1.30;;;;;;;15.56;63.85;100527.12;1751047;81;21168;-83
2022/05/22 09:03:49;;;;;;;3.12;0.90;;;;;;;15.59;63.16;100535.72;1693722;84;21545;-84
2022/05/22 09:06:22;;;;;;;2.22;1.12;;;;;;;15.62;63.01;100543.48;1741589;82;21156;-84
2022/05/22 09:08:50;;;;;;;3.55;0.90;;;;;;;15.60;62.81;100537.89;1740804;82;21040;-85
2022/05/22 09:11:56;;;;;;;4.53;1.20;;;;;;;15.61;62.94;100533.86;1741755;82;21098;-85
2022/05/22 09:14:44;;;;;;;3.20;1.10;;;;;;;15.60;62.76;100536.57;1742014;82;21091;-84
2022/05/22 09:17:20;;;;;;;3.75;1.05;;;;;;;15.50;62.56;100540.69;1741653;82;21043;-82
2022/05/22 09:20:17;;;;;;;5.47;1.02;;;;;;;15.55;62.86;100534.20;1757429;80;21035;-83
2022/05/22 09:23:04;;;;;;;3.55;1.10;;;;;;;15.68;62.85;100531.74;1771367;80;21043;-85
2022/05/22 09:25:46;;;;;;;4.00;1.02;;;;;;;15.94;63.30;100538.69;1771180;80;21457;-82
2022/05/22 09:28:27;;;;;;;4.40;1.10;;;;;;;16.09;62.68;100535.15;1772329;80;21941;-81
2022/05/22 09:31:20;;;;;;;4.50;1.00;;;;;;;15.89;61.53;100532.81;1772782;80;21612;-84
2022/05/22 09:34:12;;;;;;;4.22;1.02;;;;;;;15.89;61.53;100532.81;1772333;80;21055;-83
2022/05/22 09:37:02;;;;;;;4.10;1.17;;;;;;;15.80;62.14;100541.64;1772636;80;21063;-84
2022/05/22 09:39:47;;;;;;;1.50;0.78;;;;;;;15.96;62.43;100531.50;1772198;80;21164;-82
2022/05/22 09:42:38;;;;;;;2.00;0.85;;;;;;;16.46;62.31;100542.24;1802718;78;21872;-83
2022/05/22 09:45:20;;;;;;;3.40;0.90;;;;;;;16.46;62.31;100542.24;1787423;78;21054;-78
2022/05/22 09:48:28;;;;;;;3.40;0.78;;;;;;;16.58;61.66;100540.69;1789145;80;22099;-88
2022/05/22 09:51:10;;;;;;;1.93;0.80;;;;;;;16.63;61.16;100543.44;1820775;78;21083;-84
2022/05/22 09:54:15;;;;;;;3.33;0.60;;;;;;;16.82;61.20;100540.57;1820550;78;21008;-82
2022/05/22 09:57:15;;;;;;;3.05;0.80;;;;;;;16.86;60.61;100542.55;1820912;78;21120;-83
2022/05/22 10:00:02;;;;;;;4.08;1.12;;;;;;;16.58;59.81;100538.04;1821658;78;20976;-85
2022/05/22 10:03:01;;;;;;;2.02;0.68;;;;;;;16.31;59.69;100551.09;1819340;78;21004;-82
2022/05/22 10:06:07;;;;;;;4.65;0.78;;;;;;;16.09;59.70;100558.95;1820910;78;21032;-82
2022/05/22 10:09:14;;;;;;;3.80;0.90;;;;;;;15.93;59.56;100557.64;1821260;78;21083;-82
2022/05/22 10:12:03;;;;;;;3.22;0.93;;;;;;;15.82;59.75;100560.91;1821095;78;21155;-82
2022/05/22 10:14:56;;;;;;;3.95;0.70;;;;;;;15.81;59.91;100557.03;1819710;78;21027;-86
2022/05/22 10:17:48;;;;;;;3.15;0.70;;;;;;;15.87;60.10;100549.22;1821398;78;21027;-82
2022/05/22 10:20:52;;;;;;;3.37;0.72;;;;;;;15.95;60.25;100555.77;1820558;78;21035;-84
2022/05/22 10:23:46;;;;;;;2.60;0.95;;;;;;;16.09;60.20;100558.09;1824252;78;21020;-84
2022/05/22 10:26:36;;;;;;;5.87;1.00;;;;;;;16.13;59.66;100562.25;1824426;78;21081;-89
2022/05/22 10:29:30;;;;;;;1.52;0.55;;;;;;;16.09;59.27;100562.06;1824108;78;21452;-88
2022/05/22 10:32:22;;;;;;;2.20;0.78;;;;;;;16.04;58.86;100559.20;1823979;78;21015;-86
2022/05/22 10:34:59;;;;;;;2.42;0.75;;;;;;;16.05;58.85;100552.98;1824060;78;22189;-85
2022/05/22 10:37:53;;;;;;;2.75;0.80;;;;;;;16.10;58.84;100567.28;1824093;78;21011;-83
2022/05/22 10:40:24;;;;;;;1.90;0.70;;;;;;;16.22;58.95;100556.45;1727724;82;21838;-80
2022/05/22 10:42:56;;;;;;;1.98;0.80;;;;;;;16.43;58.96;100558.30;1727471;83;21084;-86
2022/05/22 10:45:32;;;;;;;1.65;0.75;;;;;;;16.55;58.69;100556.27;1727586;83;21515;-84
2022/05/22 10:48:19;;;;;;;2.98;0.90;;;;;;;16.64;58.21;100564.12;1727780;83;21847;-84
2022/05/22 10:51:12;;;;;;;3.47;1.02;;;;;;;16.67;57.96;100555.53;1727633;83;21095;-84
2022/05/22 10:53:55;;;;;;;3.08;0.80;;;;;;;16.65;57.77;100555.23;1727900;83;22083;-82
2022/05/22 10:56:27;;;;;;;3.00;0.72;;;;;;;16.74;58.11;100554.70;1727419;83;21027;-82
2022/05/22 10:59:10;;;;;;;3.05;0.78;;;;;;;16.99;58.05;100543.50;1727696;83;21138;-85
2022/05/22 11:01:47;;;;;;;2.33;0.90;;;;;;;17.41;58.19;100545.75;1727013;83;21050;-87
2022/05/22 11:04:19;;;;;;;2.67;0.90;;;;;;;17.92;57.74;100546.02;1723731;83;21526;-85
2022/05/22 11:06:57;;;;;;;2.77;0.75;;;;;;;18.33;57.50;100542.91;1727525;83;21126;-87
2022/05/22 11:09:29;;;;;;;6.83;1.05;;;;;;;18.62;56.55;100533.83;1727733;83;21567;-81
2022/05/22 11:12:13;;;;;;;3.22;0.85;;;;;;;18.91;55.89;100528.33;1727433;83;21583;-86
2022/05/22 11:14:41;;;;;;;2.72;0.80;;;;;;;19.25;55.98;100533.92;1772775;78;21519;-84
2022/05/22 11:17:22;;;;;;;2.05;0.70;;;;;;;19.73;55.63;100518.06;1824008;78;21493;-84
2022/05/22 11:19:56;;;;;;;3.55;0.80;;;;;;;20.04;55.07;100521.50;1824617;78;21846;-84
2022/05/22 11:22:38;;;;;;;1.77;0.80;;;;;;;20.00;54.13;100520.50;1813545;78;21032;-85
2022/05/22 11:25:39;;;;;;;4.20;0.75;;;;;;;19.92;53.82;100518.40;1810883;79;21035;-83
2022/05/22 11:28:34;;;;;;;3.15;1.00;;;;;;;20.18;53.73;100515.14;1811062;79;21091;-83
2022/05/22 11:31:25;;;;;;;2.42;0.62;;;;;;;20.36;53.05;100511.55;1810972;79;21546;-83
2022/05/22 11:34:17;;;;;;;2.80;0.70;;;;;;;20.27;52.44;100509.11;1811120;79;21898;-84
2022/05/22 11:37:25;;;;;;;4.37;0.70;;;;;;;20.30;52.37;100508.52;1806643;77;21028;-85
2022/05/22 11:40:26;;;;;;;2.02;0.72;;;;;;;20.51;52.12;100508.22;1746432;81;32509;-84
2022/05/22 11:42:59;;;;;;;;;;;;;;;20.52;51.09;100512.56;1682946;83;21652;-84
2022/05/22 11:46:05;;;;;;;5.00;1.55;;;;;;;20.33;50.40;100513.61;1710249;83;20497;-84
2022/05/22 11:48:55;;;;;;;1.42;0.70;;;;;;;20.05;50.45;100510.36;1668231;86;21148;-83
2022/05/22 11:52:02;;;;;;;4.35;1.00;;;;;;;19.77;50.45;100516.89;1671098;83;21038;-84
2022/05/22 11:54:58;;;;;;;4.33;1.10;;;;;;;19.53;50.29;100518.16;1712121;82;21062;-83
2022/05/22 11:57:36;;;;;;;2.25;0.85;;;;;;;19.45;50.60;100513.88;1649642;84;21099;-83
2022/05/22 12:00:17;;;;;;;3.65;1.00;;;;;;;19.79;50.73;100518.48;1634094;86;21085;-84
2022/05/22 12:03:03;;;;;;;2.60;0.70;;;;;;;20.30;50.59;100516.50;1638475;87;21158;-84
2022/05/22 12:05:38;;;;;;;2.08;0.68;;;;;;;20.74;50.28;100510.94;1638592;87;21057;-84
2022/05/22 12:08:38;;;;;;;2.27;0.80;;;;;;;21.24;50.13;100501.61;1637480;87;21603;-85
2022/05/22 12:11:20;;;;;;;2.17;0.82;;;;;;;21.53;49.89;100501.97;1638445;87;21129;-84
2022/05/22 12:14:16;;;;;;;3.60;1.10;;;;;;;22.02;49.77;100506.40;1638827;86;21085;-86
2022/05/22 12:17:00;;;;;;;2.65;0.80;;;;;;;22.32;48.61;100492.33;1638511;87;21627;-84
2022/05/22 12:19:53;;;;;;;3.58;0.88;;;;;;;22.73;48.42;100499.96;1655530;84;21063;-87
2022/05/22 12:25:00;;;;;;;2.50;0.90;;;;;;;22.41;46.15;100494.20;1667102;84;21545;-86
2022/05/22 12:27:34;;;;;;;5.08;0.80;;;;;;;22.00;45.82;100504.34;1714895;83;21074;-85